sensor_id;sensor_type;location;lat;lon;timestamp;temperature;humidity
17529;DHT22;8882;53.192;8.184;2023-08-12T07:00:56;20.50;99.90
17529;DHT22;8882;53.192;8.184;2023-08-12T07:03:22;20.50;99.90
17529;DHT22;8882;53.192;8.184;2023-08-12T07:05:48;20.60;99.90
17529;DHT22;8882;53.192;8.184;2023-08-12T07:08:13;20.60;99.90
17529;DHT22;8882;53.192;8.184;2023-08-12T07:10:40;20.60;99.90
17529;DHT22;8882;53.192;8.184;2023-08-12T07:13:05;20.70;99.90
17529;DHT22;8882;53.192;8.184;2023-08-12T07:15:31;20.80;99.90
17529;DHT22;8882;53.192;8.184;2023-08-12T07:17:57;20.90;99.90
17529;DHT22;8882;53.192;8.184;2023-08-12T07:20:25;20.90;99.90
17529;DHT22;8882;53.192;8.184;2023-08-12T07:22:51;21.00;99.90
17529;DHT22;8882;53.192;8.184;2023-08-12T07:25:17;21.00;99.90
17529;DHT22;8882;53.192;8.184;2023-08-12T07:27:42;21.00;99.90
17529;DHT22;8882;53.192;8.184;2023-08-12T07:30:08;21.00;99.90
17529;DHT22;8882;53.192;8.184;2023-08-12T07:32:36;21.00;99.90
17529;DHT22;8882;53.192;8.184;2023-08-12T07:35:01;21.10;99.90
17529;DHT22;8882;53.192;8.184;2023-08-12T07:37:28;21.10;99.90
17529;DHT22;8882;53.192;8.184;2023-08-12T07:39:53;21.10;99.90
17529;DHT22;8882;53.192;8.184;2023-08-12T07:42:19;21.10;99.90
17529;DHT22;8882;53.192;8.184;2023-08-12T07:44:45;21.20;99.90
17529;DHT22;8882;53.192;8.184;2023-08-12T07:47:11;21.10;99.90
17529;DHT22;8882;53.192;8.184;2023-08-12T07:49:36;21.10;99.90
17529;DHT22;8882;53.192;8.184;2023-08-12T07:52:02;21.10;99.90
17529;DHT22;8882;53.192;8.184;2023-08-12T07:54:28;21.10;99.90
17529;DHT22;8882;53.192;8.184;2023-08-12T07:56:53;21.10;99.90
17529;DHT22;8882;53.192;8.184;2023-08-12T07:59:19;21.10;99.90
17529;DHT22;8882;53.192;8.184;2023-08-12T08:01:45;21.00;99.90
17529;DHT22;8882;53.192;8.184;2023-08-12T08:04:11;21.00;99.90
17529;DHT22;8882;53.192;8.184;2023-08-12T08:06:36;21.10;99.90
17529;DHT22;8882;53.192;8.184;2023-08-12T08:09:02;21.00;99.90
17529;DHT22;8882;53.192;8.184;2023-08-12T08:11:29;21.00;99.90
17529;DHT22;8882;53.192;8.184;2023-08-12T08:13:55;21.00;99.90
17529;DHT22;8882;53.192;8.184;2023-08-12T08:16:20;21.00;99.90
17529;DHT22;8882;53.192;8.184;2023-08-12T08:18:46;20.90;99.90
17529;DHT22;8882;53.192;8.184;2023-08-12T08:21:11;21.00;99.90
17529;DHT22;8882;53.192;8.184;2023-08-12T08:23:37;21.10;99.90
17529;DHT22;8882;53.192;8.184;2023-08-12T08:26:02;21.00;99.90
17529;DHT22;8882;53.192;8.184;2023-08-12T08:28:28;20.90;99.90
17529;DHT22;8882;53.192;8.184;2023-08-12T08:30:53;21.00;99.90
17529;DHT22;8882;53.192;8.184;2023-08-12T08:33:20;21.00;99.90
17529;DHT22;8882;53.192;8.184;2023-08-12T08:35:45;20.90;99.90
17529;DHT22;8882;53.192;8.184;2023-08-12T08:38:11;20.90;99.90
17529;DHT22;8882;53.192;8.184;2023-08-12T08:40:36;21.00;99.90
17529;DHT22;8882;53.192;8.184;2023-08-12T08:43:04;20.90;99.90
17529;DHT22;8882;53.192;8.184;2023-08-12T08:45:33;20.90;99.90
17529;DHT22;8882;53.192;8.184;2023-08-12T08:48:00;21.00;99.90
17529;DHT22;8882;53.192;8.184;2023-08-12T08:50:28;21.00;99.90
17529;DHT22;8882;53.192;8.184;2023-08-12T08:52:56;21.00;99.90
17529;DHT22;8882;53.192;8.184;2023-08-12T08:55:22;21.00;99.90
17529;DHT22;8882;53.192;8.184;2023-08-12T08:57:48;21.10;99.90
17529;DHT22;8882;53.192;8.184;2023-08-12T09:00:17;21.10;99.90
17529;DHT22;8882;53.192;8.184;2023-08-12T09:02:45;21.10;99.90
17529;DHT22;8882;53.192;8.184;2023-08-12T09:05:13;21.10;99.90
17529;DHT22;8882;53.192;8.184;2023-08-12T09:07:41;21.10;99.90
17529;DHT22;8882;53.192;8.184;2023-08-12T09:10:07;21.10;99.90
17529;DHT22;8882;53.192;8.184;2023-08-12T09:12:34;21.10;99.90
17529;DHT22;8882;53.192;8.184;2023-08-12T09:14:59;21.10;99.90
17529;DHT22;8882;53.192;8.184;2023-08-12T09:17:25;21.10;99.90
17529;DHT22;8882;53.192;8.184;2023-08-12T09:19:50;21.00;99.90
17529;DHT22;8882;53.192;8.184;2023-08-12T09:22:17;21.00;99.90
17529;DHT22;8882;53.192;8.184;2023-08-12T09:24:43;21.10;99.90
17529;DHT22;8882;53.192;8.184;2023-08-12T09:27:08;21.00;99.90
17529;DHT22;8882;53.192;8.184;2023-08-12T09:29:35;20.90;99.90
17529;DHT22;8882;53.192;8.184;2023-08-12T09:32:18;20.80;99.90
17529;DHT22;8882;53.192;8.184;2023-08-12T09:34:51;20.70;99.90
17529;DHT22;8882;53.192;8.184;2023-08-12T09:37:17;20.60;99.90
17529;DHT22;8882;53.192;8.184;2023-08-12T09:39:44;20.60;99.90
17529;DHT22;8882;53.192;8.184;2023-08-12T09:42:11;20.60;99.90
17529;DHT22;8882;53.192;8.184;2023-08-12T09:44:37;20.50;99.90
17529;DHT22;8882;53.192;8.184;2023-08-12T09:47:03;20.50;99.90
17529;DHT22;8882;53.192;8.184;2023-08-12T09:49:29;20.50;99.90
17529;DHT22;8882;53.192;8.184;2023-08-12T09:51:55;20.50;99.90
17529;DHT22;8882;53.192;8.184;2023-08-12T09:54:21;20.60;99.90
17529;DHT22;8882;53.192;8.184;2023-08-12T09:56:48;20.50;99.90
17529;DHT22;8882;53.192;8.184;2023-08-12T09:59:19;20.50;99.90
17529;DHT22;8882;53.192;8.184;2023-08-12T10:01:49;20.60;99.90
17529;DHT22;8882;53.192;8.184;2023-08-12T10:04:18;20.60;99.90
17529;DHT22;8882;53.192;8.184;2023-08-12T10:06:44;20.60;99.90
17529;DHT22;8882;53.192;8.184;2023-08-12T10:09:10;20.60;99.90
17529;DHT22;8882;53.192;8.184;2023-08-12T10:11:36;20.60;99.90
17529;DHT22;8882;53.192;8.184;2023-08-12T10:14:03;20.60;99.90
17529;DHT22;8882;53.192;8.184;2023-08-12T10:16:29;20.70;99.90
17529;DHT22;8882;53.192;8.184;2023-08-12T10:18:57;20.70;99.90
17529;DHT22;8882;53.192;8.184;2023-08-12T10:21:23;20.60;99.90
17529;DHT22;8882;53.192;8.184;2023-08-12T10:23:50;20.70;99.90
17529;DHT22;8882;53.192;8.184;2023-08-12T10:26:17;20.70;99.90
17529;DHT22;8882;53.192;8.184;2023-08-12T10:28:43;20.70;99.90
17529;DHT22;8882;53.192;8.184;2023-08-12T10:31:11;20.80;99.90
17529;DHT22;8882;53.192;8.184;2023-08-12T10:33:38;20.70;99.90
17529;DHT22;8882;53.192;8.184;2023-08-12T10:36:04;20.70;99.90
17529;DHT22;8882;53.192;8.184;2023-08-12T10:38:31;20.70;99.90
17529;DHT22;8882;53.192;8.184;2023-08-12T10:44:01;20.70;99.90
17529;DHT22;8882;53.192;8.184;2023-08-12T10:46:35;20.80;99.90
17529;DHT22;8882;53.192;8.184;2023-08-12T10:49:05;20.80;99.90
17529;DHT22;8882;53.192;8.184;2023-08-12T10:51:52;20.60;99.90
17529;DHT22;8882;53.192;8.184;2023-08-12T10:57:13;20.60;99.90
17529;DHT22;8882;53.192;8.184;2023-08-12T11:02:27;20.60;99.90
17529;DHT22;8882;53.192;8.184;2023-08-12T11:05:03;20.60;99.90
17529;DHT22;8882;53.192;8.184;2023-08-12T11:07:39;20.70;99.90
17529;DHT22;8882;53.192;8.184;2023-08-12T11:12:35;20.80;99.90
17529;DHT22;8882;53.192;8.184;2023-08-12T11:15:02;20.90;99.90
17529;DHT22;8882;53.192;8.184;2023-08-12T11:17:35;20.90;99.90
17529;DHT22;8882;53.192;8.184;2023-08-12T11:20:03;20.80;99.90
17529;DHT22;8882;53.192;8.184;2023-08-12T11:22:31;20.90;99.90
17529;DHT22;8882;53.192;8.184;2023-08-12T11:24:57;20.90;99.90
17529;DHT22;8882;53.192;8.184;2023-08-12T11:27:22;20.90;99.90
17529;DHT22;8882;53.192;8.184;2023-08-12T11:29:49;21.00;99.90
17529;DHT22;8882;53.192;8.184;2023-08-12T11:32:17;20.90;99.90
17529;DHT22;8882;53.192;8.184;2023-08-12T11:34:43;20.80;99.90
17529;DHT22;8882;53.192;8.184;2023-08-12T11:37:09;20.90;99.90
17529;DHT22;8882;53.192;8.184;2023-08-12T11:39:34;20.90;99.90
17529;DHT22;8882;53.192;8.184;2023-08-12T11:42:00;21.00;99.90
17529;DHT22;8882;53.192;8.184;2023-08-12T11:44:25;21.00;99.90
17529;DHT22;8882;53.192;8.184;2023-08-12T11:46:51;21.00;99.90
17529;DHT22;8882;53.192;8.184;2023-08-12T11:49:18;21.00;99.90
17529;DHT22;8882;53.192;8.184;2023-08-12T11:51:45;21.00;99.90
17529;DHT22;8882;53.192;8.184;2023-08-12T11:54:12;21.00;99.90
17529;DHT22;8882;53.192;8.184;2023-08-12T11:56:38;21.00;99.90
17529;DHT22;8882;53.192;8.184;2023-08-12T11:59:03;21.10;99.90
17529;DHT22;8882;53.192;8.184;2023-08-12T12:01:31;21.20;99.90
17529;DHT22;8882;53.192;8.184;2023-08-12T12:04:00;21.20;99.90
17529;DHT22;8882;53.192;8.184;2023-08-12T12:06:33;21.30;99.90
17529;DHT22;8882;53.192;8.184;2023-08-12T12:09:06;21.30;99.90
17529;DHT22;8882;53.192;8.184;2023-08-12T12:11:35;21.30;99.90
17529;DHT22;8882;53.192;8.184;2023-08-12T12:14:02;21.40;99.90
17529;DHT22;8882;53.192;8.184;2023-08-12T12:19:04;21.30;99.90
17529;DHT22;8882;53.192;8.184;2023-08-12T12:21:38;21.40;99.90
17529;DHT22;8882;53.192;8.184;2023-08-12T12:24:04;21.40;99.90
17529;DHT22;8882;53.192;8.184;2023-08-12T12:26:30;21.40;99.90
17529;DHT22;8882;53.192;8.184;2023-08-12T12:28:55;21.40;99.90
17529;DHT22;8882;53.192;8.184;2023-08-12T12:31:21;21.40;99.90
17529;DHT22;8882;53.192;8.184;2023-08-12T12:33:46;21.40;99.90
17529;DHT22;8882;53.192;8.184;2023-08-12T12:36:12;21.40;99.90
17529;DHT22;8882;53.192;8.184;2023-08-12T12:38:37;21.40;99.90
17529;DHT22;8882;53.192;8.184;2023-08-12T12:41:02;21.50;99.90
17529;DHT22;8882;53.192;8.184;2023-08-12T12:43:28;21.40;99.90
17529;DHT22;8882;53.192;8.184;2023-08-12T12:45:53;21.40;99.90
17529;DHT22;8882;53.192;8.184;2023-08-12T12:48:19;21.40;99.90
17529;DHT22;8882;53.192;8.184;2023-08-12T12:50:44;21.40;99.90
17529;DHT22;8882;53.192;8.184;2023-08-12T12:53:10;21.40;99.90
17529;DHT22;8882;53.192;8.184;2023-08-12T12:55:35;21.30;99.90
17529;DHT22;8882;53.192;8.184;2023-08-12T12:58:01;21.30;99.90
17529;DHT22;8882;53.192;8.184;2023-08-12T13:00:26;21.30;99.90
17529;DHT22;8882;53.192;8.184;2023-08-12T13:02:52;21.20;99.90
17529;DHT22;8882;53.192;8.184;2023-08-12T13:05:17;21.20;99.90
17529;DHT22;8882;53.192;8.184;2023-08-12T13:07:43;21.20;99.90
17529;DHT22;8882;53.192;8.184;2023-08-12T13:10:09;21.20;99.90
17529;DHT22;8882;53.192;8.184;2023-08-12T13:12:34;21.20;99.90
17529;DHT22;8882;53.192;8.184;2023-08-12T13:14:59;21.20;99.90
17529;DHT22;8882;53.192;8.184;2023-08-12T13:17:25;21.20;99.90
17529;DHT22;8882;53.192;8.184;2023-08-12T13:19:50;21.20;99.90
17529;DHT22;8882;53.192;8.184;2023-08-12T13:22:16;21.10;99.90
17529;DHT22;8882;53.192;8.184;2023-08-12T13:24:41;20.90;99.90
17529;DHT22;8882;53.192;8.184;2023-08-12T13:27:07;20.90;99.90
17529;DHT22;8882;53.192;8.184;2023-08-12T13:29:33;20.70;99.90
17529;DHT22;8882;53.192;8.184;2023-08-12T13:31:58;20.40;99.90
17529;DHT22;8882;53.192;8.184;2023-08-12T13:34:24;20.30;99.90
17529;DHT22;8882;53.192;8.184;2023-08-12T13:36:49;20.10;99.90
17529;DHT22;8882;53.192;8.184;2023-08-12T13:39:15;20.10;99.90
17529;DHT22;8882;53.192;8.184;2023-08-12T13:41:40;20.10;99.90
17529;DHT22;8882;53.192;8.184;2023-08-12T13:44:06;20.00;99.90
17529;DHT22;8882;53.192;8.184;2023-08-12T13:46:31;20.00;99.90
17529;DHT22;8882;53.192;8.184;2023-08-12T13:48:57;20.00;99.90
17529;DHT22;8882;53.192;8.184;2023-08-12T13:51:22;20.00;99.90
17529;DHT22;8882;53.192;8.184;2023-08-12T13:53:48;20.20;99.90
17529;DHT22;8882;53.192;8.184;2023-08-12T13:56:13;20.40;99.90
17529;DHT22;8882;53.192;8.184;2023-08-12T13:58:40;20.50;99.90
17529;DHT22;8882;53.192;8.184;2023-08-12T14:01:05;20.60;99.90
17529;DHT22;8882;53.192;8.184;2023-08-12T14:03:32;20.70;99.90
17529;DHT22;8882;53.192;8.184;2023-08-12T14:05:58;20.80;99.90
17529;DHT22;8882;53.192;8.184;2023-08-12T14:08:24;21.00;99.90
17529;DHT22;8882;53.192;8.184;2023-08-12T14:10:49;21.10;99.90
17529;DHT22;8882;53.192;8.184;2023-08-12T14:13:15;21.20;99.90
17529;DHT22;8882;53.192;8.184;2023-08-12T14:15:41;21.20;99.90
17529;DHT22;8882;53.192;8.184;2023-08-12T14:18:06;21.20;99.90
17529;DHT22;8882;53.192;8.184;2023-08-12T14:20:32;21.10;99.90
17529;DHT22;8882;53.192;8.184;2023-08-12T14:22:57;21.20;99.90
17529;DHT22;8882;53.192;8.184;2023-08-12T14:25:24;21.20;99.90
17529;DHT22;8882;53.192;8.184;2023-08-12T14:27:50;21.30;99.90
17529;DHT22;8882;53.192;8.184;2023-08-12T14:30:18;21.30;99.90
17529;DHT22;8882;53.192;8.184;2023-08-12T14:32:44;21.30;99.90
17529;DHT22;8882;53.192;8.184;2023-08-12T14:35:09;21.30;99.90
17529;DHT22;8882;53.192;8.184;2023-08-12T14:37:35;21.40;99.90
17529;DHT22;8882;53.192;8.184;2023-08-12T14:40:00;21.40;99.90
17529;DHT22;8882;53.192;8.184;2023-08-12T14:42:26;21.50;99.90
17529;DHT22;8882;53.192;8.184;2023-08-12T14:44:52;21.50;99.90
17529;DHT22;8882;53.192;8.184;2023-08-12T14:47:17;21.50;99.90
17529;DHT22;8882;53.192;8.184;2023-08-12T14:49:44;21.50;99.90
17529;DHT22;8882;53.192;8.184;2023-08-12T14:52:16;21.50;99.90
17529;DHT22;8882;53.192;8.184;2023-08-12T14:54:42;21.60;99.90
17529;DHT22;8882;53.192;8.184;2023-08-12T14:57:08;21.60;99.90
17529;DHT22;8882;53.192;8.184;2023-08-12T14:59:33;21.70;99.90
17529;DHT22;8882;53.192;8.184;2023-08-12T15:01:58;21.70;99.90
17529;DHT22;8882;53.192;8.184;2023-08-12T15:04:24;21.70;99.90
17529;DHT22;8882;53.192;8.184;2023-08-12T15:06:49;21.70;99.90
17529;DHT22;8882;53.192;8.184;2023-08-12T15:09:15;21.70;99.90
17529;DHT22;8882;53.192;8.184;2023-08-12T15:11:40;21.80;99.90
17529;DHT22;8882;53.192;8.184;2023-08-12T15:14:06;21.90;99.90
17529;DHT22;8882;53.192;8.184;2023-08-12T15:16:31;21.90;99.90
17529;DHT22;8882;53.192;8.184;2023-08-12T15:18:57;22.00;99.90
17529;DHT22;8882;53.192;8.184;2023-08-12T15:21:22;21.90;99.90
17529;DHT22;8882;53.192;8.184;2023-08-12T15:23:48;21.80;99.90
17529;DHT22;8882;53.192;8.184;2023-08-12T15:26:13;21.80;99.90
17529;DHT22;8882;53.192;8.184;2023-08-12T15:28:39;21.80;99.90
17529;DHT22;8882;53.192;8.184;2023-08-12T15:31:04;21.80;99.90
17529;DHT22;8882;53.192;8.184;2023-08-12T15:33:30;21.90;99.90
17529;DHT22;8882;53.192;8.184;2023-08-12T15:35:55;21.90;99.90
17529;DHT22;8882;53.192;8.184;2023-08-12T15:38:21;21.90;99.90
17529;DHT22;8882;53.192;8.184;2023-08-12T15:40:46;21.70;99.90
17529;DHT22;8882;53.192;8.184;2023-08-12T15:43:12;21.60;99.90
17529;DHT22;8882;53.192;8.184;2023-08-12T15:45:38;21.60;99.90
17529;DHT22;8882;53.192;8.184;2023-08-12T15:48:06;21.60;99.90
17529;DHT22;8882;53.192;8.184;2023-08-12T15:50:31;21.60;99.90
17529;DHT22;8882;53.192;8.184;2023-08-12T15:52:57;21.50;99.90
17529;DHT22;8882;53.192;8.184;2023-08-12T15:55:22;21.40;99.90
17529;DHT22;8882;53.192;8.184;2023-08-12T15:57:48;21.50;99.90
17529;DHT22;8882;53.192;8.184;2023-08-12T16:00:13;21.20;99.90
17529;DHT22;8882;53.192;8.184;2023-08-12T16:02:39;21.20;99.90
17529;DHT22;8882;53.192;8.184;2023-08-12T16:05:05;21.10;99.90
17529;DHT22;8882;53.192;8.184;2023-08-12T16:07:31;21.00;99.90
17529;DHT22;8882;53.192;8.184;2023-08-12T16:09:57;20.90;99.90
17529;DHT22;8882;53.192;8.184;2023-08-12T16:12:23;20.90;99.90
17529;DHT22;8882;53.192;8.184;2023-08-12T16:14:48;20.90;99.90
17529;DHT22;8882;53.192;8.184;2023-08-12T16:17:14;20.90;99.90
17529;DHT22;8882;53.192;8.184;2023-08-12T16:19:39;20.90;99.90
17529;DHT22;8882;53.192;8.184;2023-08-12T16:22:05;20.90;99.90
17529;DHT22;8882;53.192;8.184;2023-08-12T16:24:31;20.90;99.90
17529;DHT22;8882;53.192;8.184;2023-08-12T16:26:57;20.90;99.90
17529;DHT22;8882;53.192;8.184;2023-08-12T16:29:24;20.90;99.90
17529;DHT22;8882;53.192;8.184;2023-08-12T16:31:50;21.00;99.90
17529;DHT22;8882;53.192;8.184;2023-08-12T16:34:15;21.00;99.90
17529;DHT22;8882;53.192;8.184;2023-08-12T16:36:41;20.90;99.90
17529;DHT22;8882;53.192;8.184;2023-08-12T16:39:07;20.80;99.90
17529;DHT22;8882;53.192;8.184;2023-08-12T16:41:34;20.80;99.90
17529;DHT22;8882;53.192;8.184;2023-08-12T16:44:00;20.80;99.90
17529;DHT22;8882;53.192;8.184;2023-08-12T16:46:25;20.80;99.90
17529;DHT22;8882;53.192;8.184;2023-08-12T16:48:51;20.80;99.90
17529;DHT22;8882;53.192;8.184;2023-08-12T16:51:16;20.90;99.90
17529;DHT22;8882;53.192;8.184;2023-08-12T16:53:42;20.80;99.90
17529;DHT22;8882;53.192;8.184;2023-08-12T16:56:07;20.80;99.90
17529;DHT22;8882;53.192;8.184;2023-08-12T16:58:33;20.70;99.90
17529;DHT22;8882;53.192;8.184;2023-08-12T17:00:58;20.60;99.90
17529;DHT22;8882;53.192;8.184;2023-08-12T17:03:24;20.60;99.90
17529;DHT22;8882;53.192;8.184;2023-08-12T17:05:49;20.60;99.90
17529;DHT22;8882;53.192;8.184;2023-08-12T17:08:15;20.50;99.90
17529;DHT22;8882;53.192;8.184;2023-08-12T17:10:40;20.60;99.90
17529;DHT22;8882;53.192;8.184;2023-08-12T17:13:06;20.60;99.90
17529;DHT22;8882;53.192;8.184;2023-08-12T17:15:32;20.60;99.90
17529;DHT22;8882;53.192;8.184;2023-08-12T17:17:57;20.60;99.90
17529;DHT22;8882;53.192;8.184;2023-08-12T17:20:23;20.60;99.90
17529;DHT22;8882;53.192;8.184;2023-08-12T17:22:48;20.60;99.90
17529;DHT22;8882;53.192;8.184;2023-08-12T17:25:14;20.60;99.90
17529;DHT22;8882;53.192;8.184;2023-08-12T17:27:39;20.60;99.90
17529;DHT22;8882;53.192;8.184;2023-08-12T17:30:05;20.60;99.90
17529;DHT22;8882;53.192;8.184;2023-08-12T17:32:32;20.60;99.90
17529;DHT22;8882;53.192;8.184;2023-08-12T17:34:57;20.70;99.90
17529;DHT22;8882;53.192;8.184;2023-08-12T17:37:23;20.60;99.90
17529;DHT22;8882;53.192;8.184;2023-08-12T17:39:49;20.60;99.90
17529;DHT22;8882;53.192;8.184;2023-08-12T17:42:14;20.50;99.90
17529;DHT22;8882;53.192;8.184;2023-08-12T17:44:40;20.50;99.90
17529;DHT22;8882;53.192;8.184;2023-08-12T17:47:05;20.40;99.90
17529;DHT22;8882;53.192;8.184;2023-08-12T17:49:31;20.50;99.90
17529;DHT22;8882;53.192;8.184;2023-08-12T17:51:57;20.50;99.90
17529;DHT22;8882;53.192;8.184;2023-08-12T17:54:22;20.60;99.90
17529;DHT22;8882;53.192;8.184;2023-08-12T17:56:53;20.60;99.90
17529;DHT22;8882;53.192;8.184;2023-08-12T17:59:19;20.70;99.90
17529;DHT22;8882;53.192;8.184;2023-08-12T18:01:44;20.70;99.90
17529;DHT22;8882;53.192;8.184;2023-08-12T18:04:10;20.80;99.90
17529;DHT22;8882;53.192;8.184;2023-08-12T18:06:35;20.80;99.90
17529;DHT22;8882;53.192;8.184;2023-08-12T18:09:01;20.80;99.90
17529;DHT22;8882;53.192;8.184;2023-08-12T18:11:26;20.80;99.90
17529;DHT22;8882;53.192;8.184;2023-08-12T18:13:52;20.70;99.90
17529;DHT22;8882;53.192;8.184;2023-08-12T18:16:17;20.70;99.90
17529;DHT22;8882;53.192;8.184;2023-08-12T18:18:43;20.70;99.90
17529;DHT22;8882;53.192;8.184;2023-08-12T18:21:08;20.70;99.90
17529;DHT22;8882;53.192;8.184;2023-08-12T18:23:34;20.70;99.90
17529;DHT22;8882;53.192;8.184;2023-08-12T18:25:59;20.70;99.90
17529;DHT22;8882;53.192;8.184;2023-08-12T18:28:25;20.70;99.90
17529;DHT22;8882;53.192;8.184;2023-08-12T18:30:50;20.70;99.90
17529;DHT22;8882;53.192;8.184;2023-08-12T18:33:16;20.70;99.90
17529;DHT22;8882;53.192;8.184;2023-08-12T18:35:41;20.60;99.90
17529;DHT22;8882;53.192;8.184;2023-08-12T18:38:07;20.60;99.90
17529;DHT22;8882;53.192;8.184;2023-08-12T18:40:32;20.60;99.90
17529;DHT22;8882;53.192;8.184;2023-08-12T18:42:59;20.60;99.90
17529;DHT22;8882;53.192;8.184;2023-08-12T18:45:25;20.50;99.90
17529;DHT22;8882;53.192;8.184;2023-08-12T18:47:51;20.50;99.90
17529;DHT22;8882;53.192;8.184;2023-08-12T18:50:16;20.50;99.90
17529;DHT22;8882;53.192;8.184;2023-08-12T18:52:42;20.50;99.90
17529;DHT22;8882;53.192;8.184;2023-08-12T18:55:08;20.40;99.90
17529;DHT22;8882;53.192;8.184;2023-08-12T18:57:35;20.40;99.90
17529;DHT22;8882;53.192;8.184;2023-08-12T19:00:01;20.30;99.90
17529;DHT22;8882;53.192;8.184;2023-08-12T19:02:27;20.30;99.90
17529;DHT22;8882;53.192;8.184;2023-08-12T19:04:52;20.30;99.90
17529;DHT22;8882;53.192;8.184;2023-08-12T19:07:18;20.30;99.90
17529;DHT22;8882;53.192;8.184;2023-08-12T19:09:43;20.30;99.90
17529;DHT22;8882;53.192;8.184;2023-08-12T19:12:09;20.30;99.90
17529;DHT22;8882;53.192;8.184;2023-08-12T19:14:35;20.20;99.90
17529;DHT22;8882;53.192;8.184;2023-08-12T19:17:00;20.20;99.90
17529;DHT22;8882;53.192;8.184;2023-08-12T19:19:26;20.10;99.90
17529;DHT22;8882;53.192;8.184;2023-08-12T19:21:51;20.10;99.90
17529;DHT22;8882;53.192;8.184;2023-08-12T19:24:17;20.00;99.90
17529;DHT22;8882;53.192;8.184;2023-08-12T19:26:42;20.00;99.90
17529;DHT22;8882;53.192;8.184;2023-08-12T19:29:08;19.90;99.90
17529;DHT22;8882;53.192;8.184;2023-08-12T19:31:33;19.80;99.90
17529;DHT22;8882;53.192;8.184;2023-08-12T19:33:59;19.80;99.90
17529;DHT22;8882;53.192;8.184;2023-08-12T19:36:24;19.80;99.90
17529;DHT22;8882;53.192;8.184;2023-08-12T19:38:50;19.80;99.90
17529;DHT22;8882;53.192;8.184;2023-08-12T19:41:15;19.80;99.90
17529;DHT22;8882;53.192;8.184;2023-08-12T19:43:41;19.70;99.90
17529;DHT22;8882;53.192;8.184;2023-08-12T19:46:06;19.70;99.90
17529;DHT22;8882;53.192;8.184;2023-08-12T19:48:32;19.60;99.90
17529;DHT22;8882;53.192;8.184;2023-08-12T19:50:58;19.50;99.90
17529;DHT22;8882;53.192;8.184;2023-08-12T19:53:23;19.50;99.90
17529;DHT22;8882;53.192;8.184;2023-08-12T19:55:49;19.50;99.90
17529;DHT22;8882;53.192;8.184;2023-08-12T19:58:15;19.50;99.90
17529;DHT22;8882;53.192;8.184;2023-08-12T20:00:41;19.50;99.90
17529;DHT22;8882;53.192;8.184;2023-08-12T20:03:07;19.40;99.90
17529;DHT22;8882;53.192;8.184;2023-08-12T20:05:33;19.40;99.90
17529;DHT22;8882;53.192;8.184;2023-08-12T20:07:59;19.30;99.90
17529;DHT22;8882;53.192;8.184;2023-08-12T20:10:24;19.30;99.90
17529;DHT22;8882;53.192;8.184;2023-08-12T20:12:51;19.30;99.90
17529;DHT22;8882;53.192;8.184;2023-08-12T20:15:19;19.20;99.90
17529;DHT22;8882;53.192;8.184;2023-08-12T20:17:44;19.20;99.90
17529;DHT22;8882;53.192;8.184;2023-08-12T20:20:11;19.20;99.90
17529;DHT22;8882;53.192;8.184;2023-08-12T20:22:41;19.20;99.90
17529;DHT22;8882;53.192;8.184;2023-08-12T20:25:07;19.10;99.90
17529;DHT22;8882;53.192;8.184;2023-08-12T20:27:33;19.20;99.90
17529;DHT22;8882;53.192;8.184;2023-08-12T20:29:58;19.10;99.90
17529;DHT22;8882;53.192;8.184;2023-08-12T20:32:24;19.00;99.90
17529;DHT22;8882;53.192;8.184;2023-08-12T20:34:54;19.00;99.90
17529;DHT22;8882;53.192;8.184;2023-08-12T20:37:19;19.00;99.90
17529;DHT22;8882;53.192;8.184;2023-08-12T20:39:45;18.90;99.90
17529;DHT22;8882;53.192;8.184;2023-08-12T20:42:11;18.90;99.90
17529;DHT22;8882;53.192;8.184;2023-08-12T20:44:36;18.90;99.90
17529;DHT22;8882;53.192;8.184;2023-08-12T20:47:02;18.90;99.90
17529;DHT22;8882;53.192;8.184;2023-08-12T20:49:27;18.80;99.90
17529;DHT22;8882;53.192;8.184;2023-08-12T20:51:53;18.70;99.90
17529;DHT22;8882;53.192;8.184;2023-08-12T20:54:18;18.60;99.90
17529;DHT22;8882;53.192;8.184;2023-08-12T20:56:44;18.60;99.90
17529;DHT22;8882;53.192;8.184;2023-08-12T20:59:10;18.60;99.90
